Time;durP1;ratioP1;P1;durP2;ratioP2;P2;SDS_P1;SDS_P2;PMS_P1;PMS_P2;Temp;Humidity;BMP_temperature;BMP_pressure;BME280_temperature;BME280_humidity;BME280_pressure;Samples;Min_cycle;Max_cycle;Signal;HPM_P1;HPM_P2
2023/06/06 00:02:26;;;;;;;1.00;0.90;;;;;;;19.67;58.46;96554.38;10493814;28;20066;-33
2023/06/06 00:07:28;;;;;;;0.63;0.60;;;;;;;19.45;58.15;96540.16;10494664;28;20040;-33
2023/06/06 00:12:32;;;;;;;0.98;0.88;;;;;;;19.47;58.10;96557.88;10486466;28;20037;-33
2023/06/06 00:17:32;;;;;;;1.15;0.80;;;;;;;19.42;57.79;96564.72;10487628;28;20082;-33
2023/06/06 00:22:33;;;;;;;0.60;0.55;;;;;;;19.39;57.65;96557.09;10494399;28;20040;-33
2023/06/06 00:27:34;;;;;;;1.37;0.77;;;;;;;19.38;57.84;96547.78;10486828;28;20490;-33
2023/06/06 00:32:35;;;;;;;0.70;0.60;;;;;;;19.34;57.50;96553.75;10493914;28;20028;-33
2023/06/06 00:37:35;;;;;;;0.88;0.70;;;;;;;19.36;57.48;96562.19;10488874;28;20020;-33
2023/06/06 00:42:36;;;;;;;0.60;0.60;;;;;;;19.35;57.69;96557.97;10491356;28;20036;-33
2023/06/06 00:47:36;;;;;;;1.13;0.97;;;;;;;19.35;57.35;96552.91;10493212;28;20055;-34
2023/06/06 00:52:37;;;;;;;0.90;0.87;;;;;;;19.45;58.84;96560.47;10468204;28;20287;-34
2023/06/06 00:57:37;;;;;;;0.80;0.80;;;;;;;19.63;57.85;96562.88;10493475;28;20600;-33
2023/06/06 01:02:39;;;;;;;0.97;0.50;;;;;;;19.59;57.80;96552.75;10491681;28;20132;-32
2023/06/06 01:07:42;;;;;;;0.70;0.70;;;;;;;19.47;58.00;96558.75;10474305;28;20331;-34
2023/06/06 01:12:58;;;;;;;0.60;0.60;;;;;;;19.42;57.81;96554.56;10462714;28;20043;-33
2023/06/06 01:18:01;;;;;;;0.70;0.70;;;;;;;19.41;57.60;96557.94;10492101;28;20033;-33
2023/06/06 01:23:02;;;;;;;0.68;0.68;;;;;;;19.34;57.61;96554.59;10473242;28;20106;-34
2023/06/06 01:28:04;;;;;;;0.50;0.50;;;;;;;19.37;57.52;96558.81;10489602;28;20048;-32
2023/06/06 01:33:23;;;;;;;0.60;0.60;;;;;;;19.35;57.43;96568.13;10491954;28;20032;-32
2023/06/06 01:38:26;;;;;;;0.50;0.50;;;;;;;19.33;57.37;96562.22;10486503;28;20115;-33
2023/06/06 01:43:31;;;;;;;0.65;0.65;;;;;;;19.32;57.30;96557.97;10491517;28;20033;-33
2023/06/06 01:48:32;;;;;;;0.57;0.57;;;;;;;19.34;58.96;96546.97;10465218;28;20480;-32
2023/06/06 01:53:32;;;;;;;0.68;0.60;;;;;;;19.59;58.50;96565.44;10461213;28;20159;-32
2023/06/06 01:58:34;;;;;;;0.60;0.60;;;;;;;19.63;57.67;96556.94;10472875;28;20036;-32
2023/06/06 02:03:36;;;;;;;0.60;0.60;;;;;;;19.49;57.58;96556.22;10466899;28;20036;-32
2023/06/06 02:08:37;;;;;;;0.57;0.50;;;;;;;19.43;57.64;96562.13;10489161;28;20040;-33
2023/06/06 02:13:40;;;;;;;0.77;0.63;;;;;;;19.39;57.84;96554.56;10472734;28;20048;-33
2023/06/06 02:18:44;;;;;;;0.70;0.70;;;;;;;19.38;57.47;96557.94;10471672;28;20162;-32
2023/06/06 02:23:45;;;;;;;0.70;0.70;;;;;;;19.37;57.08;96563.88;10490833;28;20036;-33
2023/06/06 02:28:47;;;;;;;0.82;0.75;;;;;;;19.35;57.68;96563.88;10470872;28;20040;-33
2023/06/06 02:33:47;;;;;;;1.08;0.98;;;;;;;19.35;57.27;96563.88;10472751;28;20093;-32
2023/06/06 02:38:48;;;;;;;1.20;0.80;;;;;;;19.34;57.38;96561.38;10488743;28;20406;-33
2023/06/06 02:43:48;;;;;;;1.00;0.95;;;;;;;19.35;57.60;96563.88;10470692;28;20035;-34
2023/06/06 02:48:49;;;;;;;0.70;0.70;;;;;;;19.53;58.21;96560.41;10467063;28;20406;-33
2023/06/06 02:53:50;;;;;;;0.82;0.80;;;;;;;19.68;57.82;96570.47;10476810;28;20027;-34
2023/06/06 02:58:52;;;;;;;0.73;0.73;;;;;;;19.55;58.02;96563.75;10480213;28;20040;-33
2023/06/06 03:03:52;;;;;;;0.80;0.80;;;;;;;19.46;57.68;96561.28;10477930;28;20041;-33
2023/06/06 03:08:55;;;;;;;0.87;0.83;;;;;;;19.42;57.78;96572.34;10479093;28;20517;-34
2023/06/06 03:13:56;;;;;;;0.80;0.80;;;;;;;19.41;57.84;96570.66;10491731;28;20037;-33
2023/06/06 03:18:56;;;;;;;0.98;0.88;;;;;;;19.38;57.45;96578.25;10478767;28;20028;-33
2023/06/06 03:23:57;;;;;;;1.02;0.93;;;;;;;19.37;57.36;96581.66;10491259;28;20036;-34
2023/06/06 03:28:58;;;;;;;1.00;0.90;;;;;;;19.36;57.53;96582.50;10471944;28;20124;-33
2023/06/06 03:34:00;;;;;;;1.10;1.00;;;;;;;19.34;57.38;96582.50;10473431;28;20115;-32
2023/06/06 03:39:03;;;;;;;0.70;0.70;;;;;;;19.35;57.25;96588.44;10470015;28;20024;-32
2023/06/06 03:44:04;;;;;;;0.88;0.88;;;;;;;19.47;58.42;96598.50;10477941;28;20133;-32
2023/06/06 03:49:05;;;;;;;0.70;0.70;;;;;;;19.60;58.05;96584.91;10475511;28;20040;-33
2023/06/06 03:54:06;;;;;;;0.73;0.73;;;;;;;19.60;58.24;96592.53;10477609;28;20028;-33
2023/06/06 03:59:11;;;;;;;0.85;0.80;;;;;;;19.48;57.97;96603.59;10470640;28;20056;-33
2023/06/06 04:04:15;;;;;;;0.70;0.70;;;;;;;19.44;57.86;96598.53;10476853;28;20031;-33
2023/06/06 04:09:16;;;;;;;0.68;0.68;;;;;;;19.41;57.67;96603.66;10475614;28;20036;-32
2023/06/06 04:14:17;;;;;;;1.25;1.10;;;;;;;19.39;57.59;96595.16;10472557;28;20024;-32
2023/06/06 04:19:17;;;;;;;0.80;0.80;;;;;;;19.37;57.54;96596.88;10476502;28;20576;-33
2023/06/06 04:24:18;;;;;;;1.02;0.80;;;;;;;19.36;57.46;96600.28;10473171;28;20115;-33
2023/06/06 04:29:20;;;;;;;1.10;1.00;;;;;;;19.36;57.36;96605.34;10475749;28;20064;-34
2023/06/06 04:34:23;;;;;;;1.00;0.90;;;;;;;19.35;57.43;96614.66;10492442;28;20133;-33
2023/06/06 04:39:25;;;;;;;0.85;0.85;;;;;;;19.38;59.16;96612.13;10472800;28;20119;-33
2023/06/06 04:44:26;;;;;;;0.68;0.60;;;;;;;19.58;58.03;96612.00;10475448;28;20123;-33
2023/06/06 04:49:28;;;;;;;0.63;0.63;;;;;;;19.62;57.90;96618.75;10473624;28;20036;-32
2023/06/06 04:54:30;;;;;;;1.20;0.90;;;;;;;19.50;57.82;96611.22;10474775;28;20029;-33
2023/06/06 04:59:32;;;;;;;0.70;0.70;;;;;;;19.43;57.65;96601.94;10484322;28;20182;-32
2023/06/06 05:04:32;;;;;;;0.80;0.80;;;;;;;19.40;57.57;96617.16;10492519;28;20047;-33
2023/06/06 05:09:33;;;;;;;0.77;0.63;;;;;;;19.39;57.61;96618.03;10490894;28;20392;-33
2023/06/06 05:14:33;;;;;;;1.23;0.93;;;;;;;19.40;57.69;96617.16;10488135;28;20662;-33
2023/06/06 05:19:34;;;;;;;1.30;1.20;;;;;;;19.38;57.38;96623.94;10491177;28;20036;-32
2023/06/06 05:24:34;;;;;;;1.00;0.90;;;;;;;19.35;57.34;96624.81;10490158;28;20681;-32
2023/06/06 05:29:35;;;;;;;1.10;1.00;;;;;;;19.34;57.45;96628.19;10491715;28;20039;-33
2023/06/06 05:34:36;;;;;;;0.90;0.90;;;;;;;19.34;57.55;96633.28;10491192;28;20037;-37
2023/06/06 05:39:36;;;;;;;1.07;0.90;;;;;;;19.52;58.26;96639.97;10488488;28;20667;-34
2023/06/06 05:44:36;;;;;;;1.00;0.90;;;;;;;19.63;57.69;96625.50;10490851;28;20295;-33
2023/06/06 05:49:37;;;;;;;0.87;0.80;;;;;;;19.49;57.68;96638.28;10483442;28;20295;-34
2023/06/06 05:54:37;;;;;;;0.80;0.70;;;;;;;19.44;57.86;96634.09;10491697;28;20082;-32
2023/06/06 05:59:39;;;;;;;0.77;0.73;;;;;;;19.40;57.77;96632.41;10488071;28;20129;-33
2023/06/06 06:04:41;;;;;;;0.60;0.60;;;;;;;19.38;57.36;96639.19;10487225;28;20454;-33
2023/06/06 06:09:43;;;;;;;0.75;0.75;;;;;;;19.37;57.60;96632.44;10490734;28;20666;-32
2023/06/06 06:14:43;;;;;;;0.98;0.88;;;;;;;19.35;57.32;96629.06;10488643;28;20396;-32
2023/06/06 06:19:43;;;;;;;0.97;0.90;;;;;;;19.34;57.41;96637.53;10490728;28;20044;-32
2023/06/06 06:24:44;;;;;;;0.97;0.87;;;;;;;19.35;57.51;96639.22;10492169;28;20043;-32
2023/06/06 06:29:45;;;;;;;1.13;1.02;;;;;;;19.35;57.50;96639.22;10498783;28;20067;-32
2023/06/06 06:34:45;;;;;;;0.73;0.73;;;;;;;19.51;58.24;96639.13;10482930;28;20063;-35
2023/06/06 06:39:48;;;;;;;1.00;0.87;;;;;;;19.66;57.80;96635.66;10495738;28;20059;-33
2023/06/06 06:44:50;;;;;;;0.60;0.60;;;;;;;19.57;57.88;96643.31;10498032;28;20028;-33
2023/06/06 06:49:50;;;;;;;0.63;0.63;;;;;;;19.47;57.99;96649.28;10494912;28;20127;-33
2023/06/06 06:54:54;;;;;;;0.75;0.75;;;;;;;19.42;57.77;96645.94;10504226;28;20033;-35
2023/06/06 07:00:14;;;;;;;0.80;0.73;;;;;;;19.40;57.71;96650.16;10497674;28;20040;-32
2023/06/06 07:05:15;;;;;;;0.90;0.85;;;;;;;19.38;57.91;96655.28;10495874;28;20056;-32
2023/06/06 07:10:16;;;;;;;0.73;0.63;;;;;;;19.39;57.76;96656.09;10497187;28;20514;-34
2023/06/06 07:15:18;;;;;;;1.05;0.95;;;;;;;19.38;57.61;96649.34;10491535;28;20032;-33
2023/06/06 07:20:23;;;;;;;1.45;1.05;;;;;;;19.38;57.51;96654.41;10496915;28;20509;-33
2023/06/06 07:25:24;;;;;;;1.10;0.90;;;;;;;19.37;57.54;96651.06;10494223;28;20112;-32
2023/06/06 07:30:24;;;;;;;0.70;0.70;;;;;;;19.46;59.46;96650.16;10496284;28;20127;-33
2023/06/06 07:35:32;;;;;;;0.70;0.70;;;;;;;19.62;58.15;96649.22;10493246;28;20042;-33
2023/06/06 07:40:32;;;;;;;0.70;0.70;;;;;;;19.62;58.01;96644.16;10495246;28;20522;-33
2023/06/06 07:45:32;;;;;;;0.65;0.65;;;;;;;19.50;57.95;96641.69;10493806;28;20067;-32
2023/06/06 07:50:33;;;;;;;0.50;0.50;;;;;;;19.38;58.29;96634.09;10487397;28;20044;-32
2023/06/06 07:55:35;;;;;;;0.63;0.60;;;;;;;19.43;57.80;96647.63;10495681;28;20351;-33
2023/06/06 08:00:35;;;;;;;0.73;0.73;;;;;;;19.40;57.86;96638.34;10487827;28;20047;-33
2023/06/06 08:05:36;;;;;;;0.90;0.90;;;;;;;19.39;57.74;96643.41;10490600;28;20025;-33
2023/06/06 08:10:37;;;;;;;0.90;0.90;;;;;;;19.40;57.73;96642.56;10493321;28;20479;-32
2023/06/06 08:15:37;;;;;;;1.00;0.80;;;;;;;19.39;57.73;96645.94;10493176;28;20028;-32
2023/06/06 08:20:38;;;;;;;1.20;1.10;;;;;;;19.38;57.62;96634.09;10494493;28;20398;-33
2023/06/06 08:25:42;;;;;;;1.05;1.00;;;;;;;19.41;58.71;96641.72;10486765;28;20522;-33
2023/06/06 08:30:42;;;;;;;0.52;0.52;;;;;;;19.58;58.44;96643.31;10493924;28;20032;-34
2023/06/06 08:35:44;;;;;;;0.60;0.60;;;;;;;19.68;57.81;96639.03;10486915;28;20040;-33
2023/06/06 08:40:45;;;;;;;0.95;0.90;;;;;;;19.54;58.33;96645.88;10490537;28;20115;-33
2023/06/06 08:45:51;;;;;;;1.10;0.88;;;;;;;19.48;58.26;96639.13;10492745;28;20115;-33
2023/06/06 08:50:52;;;;;;;0.77;0.70;;;;;;;19.45;58.18;96643.38;10480543;28;20514;-33
2023/06/06 08:55:57;;;;;;;0.95;0.85;;;;;;;19.43;57.93;96642.56;10492836;28;20046;-33
2023/06/06 09:00:58;;;;;;;1.10;1.00;;;;;;;19.41;57.82;96642.56;10491642;28;20036;-32
2023/06/06 09:06:00;;;;;;;0.98;0.95;;;;;;;19.41;57.88;96645.09;10492461;28;20507;-33
2023/06/06 09:11:00;;;;;;;1.05;0.95;;;;;;;19.35;58.07;96636.69;10490163;28;20036;-32
2023/06/06 09:16:04;;;;;;;1.10;1.00;;;;;;;19.39;57.83;96638.34;10483480;28;20498;-32
2023/06/06 09:21:05;;;;;;;0.75;0.75;;;;;;;19.40;57.81;96637.47;10492221;28;20039;-33
2023/06/06 09:26:27;;;;;;;1.00;0.90;;;;;;;19.56;59.31;96623.84;10490222;28;20036;-32
2023/06/06 09:31:30;;;;;;;0.63;0.63;;;;;;;19.68;58.38;96619.53;10493112;28;20461;-33
2023/06/06 09:36:34;;;;;;;0.50;0.50;;;;;;;19.58;58.38;96612.84;10484819;28;20513;-33
2023/06/06 09:41:45;;;;;;;0.90;0.80;;;;;;;19.50;58.41;96624.75;10492890;28;20044;-33
2023/06/06 09:46:57;;;;;;;0.90;0.82;;;;;;;19.46;58.22;96624.75;10491512;28;20403;-33
2023/06/06 09:51:57;;;;;;;0.98;0.80;;;;;;;19.43;58.07;96620.53;10482608;28;20124;-33
2023/06/06 09:56:58;;;;;;;1.00;0.90;;;;;;;19.43;57.96;96617.16;10492187;28;20062;-32
2023/06/06 10:02:05;;;;;;;1.08;0.98;;;;;;;19.37;57.93;96612.13;10488325;28;20036;-32
2023/06/06 10:07:08;;;;;;;1.23;1.13;;;;;;;19.39;57.68;96612.94;10491261;28;20430;-33
2023/06/06 10:12:10;;;;;;;0.93;0.90;;;;;;;19.38;57.81;96608.72;10485959;28;20056;-32
2023/06/06 10:17:12;;;;;;;0.77;0.77;;;;;;;19.41;57.87;96623.97;10490545;28;20120;-33
2023/06/06 10:22:12;;;;;;;0.57;0.47;;;;;;;19.50;59.19;96617.13;10492822;28;20096;-32
2023/06/06 10:27:20;;;;;;;0.53;0.53;;;;;;;19.67;58.75;96611.94;10483399;28;20162;-32
2023/06/06 10:32:50;;;;;;;0.70;0.70;;;;;;;19.63;58.43;96620.44;10491769;28;20498;-33
2023/06/06 10:38:04;;;;;;;0.77;0.73;;;;;;;19.50;58.64;96608.69;10486363;28;20048;-33
2023/06/06 10:43:04;;;;;;;0.70;0.70;;;;;;;19.46;58.30;96605.31;10487905;28;20066;-32
2023/06/06 10:48:05;;;;;;;1.27;0.73;;;;;;;19.44;58.30;96603.63;10491153;28;20561;-32
2023/06/06 10:53:16;;;;;;;0.68;0.68;;;;;;;19.43;58.15;96604.47;10485489;28;20025;-34
2023/06/06 10:58:23;;;;;;;0.90;0.88;;;;;;;19.41;57.98;96593.50;10489997;28;20028;-32
2023/06/06 11:03:42;;;;;;;0.60;0.60;;;;;;;19.42;57.94;96597.72;10483381;28;20410;-34
2023/06/06 11:08:55;;;;;;;0.90;0.90;;;;;;;19.42;58.14;96595.19;10489732;28;20032;-33
2023/06/06 11:13:57;;;;;;;1.15;1.02;;;;;;;19.42;58.01;96587.56;10497079;28;20039;-32
2023/06/06 11:19:09;;;;;;;1.00;0.90;;;;;;;19.52;59.50;96586.66;10494159;28;20192;-33
2023/06/06 11:24:10;;;;;;;0.50;0.50;;;;;;;19.68;58.35;96588.25;10489949;28;20387;-32
2023/06/06 11:29:11;;;;;;;0.50;0.50;;;;;;;19.63;58.63;96590.81;10495170;28;20037;-33
2023/06/06 11:34:14;;;;;;;0.85;0.85;;;;;;;19.52;58.59;96581.56;10495514;28;20448;-34
2023/06/06 11:39:15;;;;;;;0.65;0.65;;;;;;;19.49;58.46;96581.59;10495957;28;20489;-32
2023/06/06 11:44:17;;;;;;;0.70;0.60;;;;;;;19.44;58.34;96584.13;10494560;28;20056;-33
2023/06/06 11:49:20;;;;;;;0.80;0.80;;;;;;;19.44;58.25;96584.13;10496277;28;20107;-33
2023/06/06 11:54:20;;;;;;;0.80;0.80;;;;;;;19.42;57.95;96577.41;10494242;28;20449;-32
2023/06/06 11:59:21;;;;;;;1.20;0.90;;;;;;;19.35;58.18;96573.22;10495506;28;20086;-32
2023/06/06 12:04:23;;;;;;;0.90;0.90;;;;;;;19.41;57.88;96570.66;10492989;28;20772;-33
2023/06/06 12:09:24;;;;;;;0.77;0.77;;;;;;;19.38;58.07;96574.03;10494946;28;20517;-32
2023/06/06 12:14:26;;;;;;;0.70;0.70;;;;;;;19.47;59.66;96571.44;10490042;28;20055;-32
2023/06/06 12:19:26;;;;;;;0.60;0.60;;;;;;;19.65;58.65;96573.00;10493185;28;20033;-34
2023/06/06 12:24:32;;;;;;;0.63;0.60;;;;;;;19.69;58.08;96556.91;10494163;28;20033;-32
2023/06/06 12:29:35;;;;;;;0.50;0.50;;;;;;;19.56;58.61;96557.81;10486709;28;20050;-33
2023/06/06 12:34:44;;;;;;;0.70;0.65;;;;;;;19.49;58.63;96553.66;10494014;28;20115;-33
2023/06/06 12:39:46;;;;;;;0.85;0.70;;;;;;;19.48;58.52;96544.34;10486095;28;20024;-34
2023/06/06 12:44:46;;;;;;;0.60;0.60;;;;;;;19.46;58.51;96551.13;10493398;28;20082;-33
2023/06/06 12:49:47;;;;;;;0.90;0.90;;;;;;;19.46;58.32;96553.66;10492120;28;20552;-32
2023/06/06 12:54:48;;;;;;;0.80;0.80;;;;;;;19.44;58.44;96546.06;10489784;28;20036;-32
2023/06/06 12:59:48;;;;;;;0.60;0.60;;;;;;;19.44;58.25;96550.31;10490816;28;20043;-32
2023/06/06 13:04:49;;;;;;;0.63;0.63;;;;;;;19.44;58.34;96553.66;10484493;28;20041;-32
2023/06/06 13:09:49;;;;;;;1.03;0.87;;;;;;;19.45;59.38;96549.44;10492374;28;20029;-33
2023/06/06 13:14:51;;;;;;;0.70;0.70;;;;;;;19.63;58.96;96544.25;10495060;28;20067;-33
2023/06/06 13:19:51;;;;;;;0.65;0.60;;;;;;;19.69;58.40;96544.19;10491014;28;20032;-32
2023/06/06 13:24:52;;;;;;;0.82;0.82;;;;;;;19.58;58.76;96553.59;10492585;28;20028;-33
2023/06/06 13:29:52;;;;;;;0.50;0.50;;;;;;;19.52;58.64;96551.09;10485813;28;20052;-34
2023/06/06 13:34:53;;;;;;;0.70;0.70;;;;;;;19.48;58.68;96554.50;10491384;28;20283;-32
2023/06/06 13:39:53;;;;;;;1.00;0.83;;;;;;;19.44;58.27;96551.13;10483468;28;20416;-33
2023/06/06 13:44:53;;;;;;;0.70;0.70;;;;;;;19.44;58.27;96555.38;10491640;28;20487;-33
2023/06/06 13:49:55;;;;;;;0.67;0.67;;;;;;;19.43;58.24;96546.91;10490569;28;20042;-32
2023/06/06 13:54:56;;;;;;;0.80;0.80;;;;;;;19.38;58.16;96540.19;10486022;28;20497;-32
2023/06/06 13:59:57;;;;;;;1.00;0.80;;;;;;;19.42;58.08;96547.75;10489993;28;20024;-33
2023/06/06 14:04:57;;;;;;;0.50;0.50;;;;;;;19.43;59.15;96552.00;10483955;28;20039;-33
2023/06/06 14:09:58;;;;;;;0.60;0.60;;;;;;;19.63;58.82;96539.16;10491346;28;20032;-34
2023/06/06 14:14:58;;;;;;;0.63;0.63;;;;;;;19.74;58.21;96540.75;10489939;28;20032;-34
2023/06/06 14:19:59;;;;;;;0.70;0.70;;;;;;;19.61;58.62;96541.69;10491055;28;20163;-32
2023/06/06 14:25:00;;;;;;;0.50;0.50;;;;;;;19.51;58.67;96541.81;10484270;28;20079;-32
2023/06/06 14:30:00;;;;;;;0.65;0.65;;;;;;;19.49;58.64;96546.06;10484105;28;20700;-33
2023/06/06 14:35:06;;;;;;;1.17;0.80;;;;;;;19.48;58.42;96540.13;10491157;28;20031;-32
2023/06/06 14:40:07;;;;;;;0.88;0.70;;;;;;;19.45;58.49;96549.44;10488663;28;20058;-34
2023/06/06 14:45:08;;;;;;;0.90;0.50;;;;;;;19.44;58.34;96550.31;10493773;28;20410;-32
2023/06/06 14:50:09;;;;;;;0.93;0.68;;;;;;;19.44;58.26;96550.31;10489646;28;20384;-34
2023/06/06 14:55:09;;;;;;;0.60;0.60;;;;;;;19.43;58.12;96552.00;10498062;28;20029;-33
2023/06/06 15:00:10;;;;;;;0.77;0.77;;;;;;;19.43;58.18;96546.09;10490913;28;20403;-32
2023/06/06 15:05:11;;;;;;;0.65;0.65;;;;;;;19.57;59.27;96546.81;10497679;28;20036;-33
2023/06/06 15:10:12;;;;;;;0.50;0.40;;;;;;;19.73;58.61;96545.84;10490112;28;20031;-33
2023/06/06 15:15:13;;;;;;;0.60;0.60;;;;;;;19.64;58.68;96543.38;10495665;28;20035;-34
2023/06/06 15:20:14;;;;;;;0.55;0.55;;;;;;;19.53;58.79;96535.88;10497156;28;20136;-32
2023/06/06 15:25:14;;;;;;;0.60;0.60;;;;;;;19.50;58.47;96533.31;10495339;28;20483;-33
2023/06/06 15:30:15;;;;;;;0.60;0.60;;;;;;;19.37;58.42;96515.66;10496836;28;20072;-33
2023/06/06 15:35:16;;;;;;;0.80;0.80;;;;;;;19.46;58.55;96534.22;10476956;28;20381;-32
2023/06/06 15:40:16;;;;;;;0.50;0.50;;;;;;;19.44;58.24;96533.34;10496090;28;20036;-33
2023/06/06 15:45:17;;;;;;;0.90;0.80;;;;;;;19.43;58.21;96526.59;10494944;28;20481;-33
2023/06/06 15:50:17;;;;;;;0.98;0.88;;;;;;;19.43;58.30;96525.78;10494726;28;20410;-34
2023/06/06 15:55:18;;;;;;;0.93;0.70;;;;;;;19.44;58.27;96530.00;10488377;28;20056;-33
2023/06/06 16:00:22;;;;;;;0.57;0.57;;;;;;;19.52;59.99;96525.69;10488228;28;20043;-31
2023/06/06 16:05:22;;;;;;;0.68;0.50;;;;;;;19.68;58.54;96512.88;10495909;28;20039;-33
2023/06/06 16:10:23;;;;;;;0.60;0.60;;;;;;;19.69;58.61;96516.25;10487173;28;20425;-32
2023/06/06 16:15:23;;;;;;;0.60;0.60;;;;;;;19.58;58.95;96510.44;10494673;28;20233;-33
2023/06/06 16:20:23;;;;;;;1.07;0.60;;;;;;;19.53;58.71;96515.56;10499389;28;20119;-33
2023/06/06 16:25:24;;;;;;;0.50;0.50;;;;;;;19.50;58.54;96512.19;10491903;28;20090;-33
2023/06/06 16:30:24;;;;;;;0.80;0.77;;;;;;;19.48;58.52;96508.78;10494208;28;20046;-33
2023/06/06 16:35:25;;;;;;;0.70;0.67;;;;;;;19.48;58.49;96509.66;10487056;28;20040;-33
2023/06/06 16:40:27;;;;;;;0.60;0.60;;;;;;;19.47;58.48;96507.09;10493555;28;20028;-32
2023/06/06 16:45:27;;;;;;;0.63;0.63;;;;;;;19.46;58.21;96510.50;10492472;28;20032;-34
2023/06/06 16:50:28;;;;;;;0.70;0.70;;;;;;;19.46;58.15;96508.81;10496322;28;20087;-32
2023/06/06 16:55:28;;;;;;;0.57;0.57;;;;;;;19.47;59.68;96504.56;10493547;28;20059;-32
2023/06/06 17:00:28;;;;;;;0.53;0.53;;;;;;;19.66;58.97;96511.22;10488427;28;20488;-33
2023/06/06 17:05:29;;;;;;;0.50;0.50;;;;;;;19.74;58.44;96505.19;10492865;28;20043;-32
2023/06/06 17:10:30;;;;;;;0.52;0.50;;;;;;;19.62;58.78;96514.63;10490480;28;20047;-32
2023/06/06 17:15:30;;;;;;;0.77;0.73;;;;;;;19.54;58.90;96513.84;10498228;28;20024;-33
2023/06/06 17:20:31;;;;;;;0.50;0.50;;;;;;;19.53;58.67;96512.16;10486392;28;20048;-33
2023/06/06 17:25:31;;;;;;;0.73;0.60;;;;;;;19.49;58.50;96518.94;10485627;28;20305;-34
2023/06/06 17:30:31;;;;;;;0.53;0.53;;;;;;;19.48;58.53;96516.41;10491941;28;20107;-33
2023/06/06 17:35:34;;;;;;;0.60;0.60;;;;;;;19.47;58.36;96512.19;10489353;28;20482;-33
2023/06/06 17:40:34;;;;;;;0.55;0.55;;;;;;;19.47;58.24;96519.81;10490925;28;20041;-33
2023/06/06 17:45:35;;;;;;;0.60;0.60;;;;;;;19.46;58.24;96525.75;10491868;28;20441;-32
2023/06/06 17:50:35;;;;;;;0.95;0.73;;;;;;;19.46;58.38;96515.59;10485922;28;20032;-32
2023/06/06 17:55:37;;;;;;;0.60;0.60;;;;;;;19.62;59.42;96522.25;10491697;28;20492;-32
2023/06/06 18:00:38;;;;;;;0.70;0.63;;;;;;;19.76;58.35;96525.53;10483416;28;20410;-33
2023/06/06 18:05:38;;;;;;;0.60;0.50;;;;;;;19.65;58.75;96527.28;10491026;28;20040;-33
2023/06/06 18:10:38;;;;;;;0.40;0.40;;;;;;;19.56;58.91;96533.28;10487453;28;20068;-34
2023/06/06 18:15:39;;;;;;;0.57;0.53;;;;;;;19.51;58.77;96539.25;10489886;28;20032;-32
2023/06/06 18:20:40;;;;;;;0.98;0.52;;;;;;;19.49;58.46;96540.97;10495727;28;20071;-32
2023/06/06 18:25:40;;;;;;;0.50;0.50;;;;;;;19.48;58.39;96549.41;10498050;28;20505;-33
2023/06/06 18:30:41;;;;;;;0.50;0.50;;;;;;;19.47;58.28;96546.06;10498921;28;20036;-33
2023/06/06 18:35:42;;;;;;;0.77;0.73;;;;;;;19.45;58.32;96549.44;10497516;28;20028;-32
2023/06/06 18:40:42;;;;;;;0.65;0.63;;;;;;;19.45;58.31;96547.75;10498365;28;20036;-33
2023/06/06 18:45:47;;;;;;;0.60;0.60;;;;;;;19.46;58.28;96551.13;10492746;28;20039;-33
2023/06/06 18:50:47;;;;;;;0.52;0.52;;;;;;;19.58;59.74;96556.16;10498268;28;20283;-32
2023/06/06 18:55:48;;;;;;;0.40;0.40;;;;;;;19.74;58.79;96558.53;10490035;28;20025;-33
2023/06/06 19:00:48;;;;;;;0.40;0.40;;;;;;;19.68;58.59;96567.91;10497999;28;20032;-32
2023/06/06 19:05:49;;;;;;;0.57;0.50;;;;;;;19.58;58.88;96571.38;10494889;28;20025;-32
2023/06/06 19:10:49;;;;;;;0.60;0.60;;;;;;;19.49;58.63;96563.81;10495259;28;20491;-32
2023/06/06 19:15:50;;;;;;;0.50;0.40;;;;;;;19.50;58.39;96578.19;10497209;28;20058;-33
2023/06/06 19:20:50;;;;;;;0.47;0.47;;;;;;;19.47;58.31;96579.06;10490199;28;20032;-33
2023/06/06 19:25:50;;;;;;;0.60;0.60;;;;;;;19.46;58.40;96587.53;10496929;28;20090;-33
2023/06/06 19:30:51;;;;;;;0.50;0.50;;;;;;;19.47;58.33;96593.44;10493204;28;20343;-32
2023/06/06 19:35:54;;;;;;;0.60;0.60;;;;;;;19.46;58.04;96607.00;10495238;28;20028;-32
2023/06/06 19:40:54;;;;;;;0.95;0.70;;;;;;;19.45;58.03;96605.31;10496221;28;20035;-32
2023/06/06 19:45:55;;;;;;;0.60;0.60;;;;;;;19.51;60.59;96613.72;10491116;28;20033;-33
2023/06/06 19:50:55;;;;;;;0.53;0.53;;;;;;;19.69;58.59;96625.47;10496163;28;20283;-33
2023/06/06 19:55:56;;;;;;;0.43;0.33;;;;;;;19.73;58.28;96637.28;10496850;28;20461;-33
2023/06/06 20:00:57;;;;;;;0.30;0.30;;;;;;;19.60;58.62;96640.78;10499723;28;20021;-33
2023/06/06 20:05:58;;;;;;;0.43;0.40;;;;;;;19.53;58.64;96641.66;10491992;28;20064;-33
2023/06/06 20:10:58;;;;;;;0.50;0.50;;;;;;;19.50;58.34;96654.38;10493696;28;20067;-33
2023/06/06 20:15:59;;;;;;;0.50;0.40;;;;;;;19.48;58.30;96648.44;10495100;28;20028;-32
2023/06/06 20:21:00;;;;;;;0.60;0.60;;;;;;;19.47;58.23;96654.38;10493413;28;20028;-32
2023/06/06 20:26:06;;;;;;;0.40;0.40;;;;;;;19.45;58.07;96658.63;10494570;28;20024;-33
2023/06/06 20:31:07;;;;;;;0.50;0.50;;;;;;;19.46;58.25;96660.31;10487446;28;20082;-33
2023/06/06 20:36:08;;;;;;;0.70;0.70;;;;;;;19.45;58.16;96661.16;10493804;28;20475;-33
2023/06/06 20:41:08;;;;;;;0.43;0.40;;;;;;;19.47;59.12;96659.44;10491173;28;20174;-33
2023/06/06 20:46:08;;;;;;;0.40;0.40;;;;;;;19.66;58.48;96658.53;10492625;28;20444;-33
2023/06/06 20:51:09;;;;;;;0.43;0.43;;;;;;;19.76;58.01;96658.44;10491054;28;20033;-33
2023/06/06 20:56:09;;;;;;;0.33;0.33;;;;;;;19.62;58.46;96664.47;10492341;28;20028;-33
2023/06/06 21:01:11;;;;;;;0.32;0.32;;;;;;;19.54;58.49;96663.66;10493187;28;20047;-32
2023/06/06 21:06:11;;;;;;;0.50;0.50;;;;;;;19.50;58.29;96665.38;10487732;28;20040;-32
2023/06/06 21:11:11;;;;;;;0.40;0.40;;;;;;;19.49;58.30;96660.31;10492459;28;20031;-32
2023/06/06 21:16:12;;;;;;;0.50;0.50;;;;;;;19.47;58.21;96662.84;10484773;28;20395;-33
2023/06/06 21:21:12;;;;;;;0.50;0.50;;;;;;;19.44;58.04;96659.47;10492757;28;20036;-34
2023/06/06 21:26:12;;;;;;;0.50;0.50;;;;;;;19.45;57.92;96662.03;10491106;28;20554;-32
2023/06/06 21:31:13;;;;;;;0.50;0.50;;;;;;;19.45;58.14;96661.16;10491105;28;20028;-32
2023/06/06 21:36:13;;;;;;;0.68;0.50;;;;;;;19.44;57.94;96662.84;10491630;28;20378;-33
2023/06/06 21:41:14;;;;;;;0.40;0.40;;;;;;;19.58;58.60;96647.56;10499214;28;20032;-32
2023/06/06 21:46:16;;;;;;;0.50;0.50;;;;;;;19.73;58.18;96661.00;10491365;28;20622;-33
2023/06/06 21:51:16;;;;;;;0.68;0.57;;;;;;;19.62;58.47;96661.91;10483924;28;20437;-32
2023/06/06 21:56:17;;;;;;;0.30;0.30;;;;;;;19.49;58.28;96656.06;10486242;28;20029;-34
2023/06/06 22:01:17;;;;;;;0.60;0.60;;;;;;;19.49;58.21;96662.84;10489504;28;20028;-33
2023/06/06 22:06:18;;;;;;;0.40;0.40;;;;;;;19.47;58.30;96674.69;10490352;28;20035;-33
2023/06/06 22:11:18;;;;;;;0.50;0.47;;;;;;;19.47;57.86;96679.75;10490834;28;20078;-33
2023/06/06 22:16:18;;;;;;;0.30;0.30;;;;;;;19.46;57.97;96678.94;10489778;28;20028;-33
2023/06/06 22:21:19;;;;;;;0.50;0.50;;;;;;;19.45;57.88;96678.94;10491034;28;20312;-32
2023/06/06 22:26:19;;;;;;;0.63;0.60;;;;;;;19.45;57.96;96686.56;10482737;28;20494;-33
2023/06/06 22:31:20;;;;;;;0.83;0.70;;;;;;;19.44;58.31;96684.88;10488426;28;20191;-32
2023/06/06 22:36:20;;;;;;;0.40;0.40;;;;;;;19.61;59.26;96683.91;10489060;28;20112;-32
2023/06/06 22:41:20;;;;;;;0.50;0.40;;;;;;;19.77;58.51;96684.69;10489970;28;20584;-32
2023/06/06 22:46:21;;;;;;;0.50;0.50;;;;;;;19.66;58.76;96683.94;10490966;28;20075;-33
2023/06/06 22:51:21;;;;;;;0.53;0.53;;;;;;;19.56;58.39;96679.72;10482109;28;20028;-33
2023/06/06 22:56:22;;;;;;;0.63;0.53;;;;;;;19.52;58.19;96683.13;10490353;28;20029;-32
2023/06/06 23:01:24;;;;;;;0.50;0.50;;;;;;;19.47;58.05;96680.63;10488180;28;20356;-33
2023/06/06 23:06:25;;;;;;;0.45;0.40;;;;;;;19.43;58.03;96665.41;10493525;28;20086;-33
2023/06/06 23:11:25;;;;;;;0.70;0.70;;;;;;;19.47;57.97;96667.94;10490516;28;20039;-32
2023/06/06 23:16:26;;;;;;;0.77;0.73;;;;;;;19.44;58.01;96660.31;10492371;28;20063;-33
2023/06/06 23:21:27;;;;;;;0.45;0.45;;;;;;;19.45;57.80;96662.03;10496333;28;20498;-32